Terminal Aerodrome Forecast
Issued by NWS Des Moines, IA

Home | Current Version | Previous Version | Text Only | Print | Product List | Glossary On
Versions: 1 2 3 4 5 6 7 8 9 10 11 12 13 14 15 16 17 18 19 20 21 22 23 24 25 26 27 28 29 30
000
FTUS43 KDMX 270327 AAA
TAFALO
TAF AMD
KALO 270327Z 2703/2724 32009KT P6SM BKN050
     FM270500 33009KT P6SM BKN030
     FM271700 04005KT P6SM SCT030
     FM272100 12005KT P6SM SCT030=

USA.gov is the U.S. government's official web portal to all federal, state and local government web resources and services.